sensor_id;sensor_type;location;lat;lon;timestamp;P1;durP1;ratioP1;P2;durP2;ratioP2
3565;SDS011;1797;51.844;7.684;2023-04-24T00:02:03;1.70;;;0.90;;
3565;SDS011;1797;51.844;7.684;2023-04-24T00:04:29;0.40;;;0.30;;
3565;SDS011;1797;51.844;7.684;2023-04-24T00:06:56;0.40;;;0.40;;
3565;SDS011;1797;51.844;7.684;2023-04-24T00:09:24;0.40;;;0.30;;
3565;SDS011;1797;51.844;7.684;2023-04-24T00:11:50;0.40;;;0.40;;
3565;SDS011;1797;51.844;7.684;2023-04-24T00:14:17;0.40;;;0.30;;
3565;SDS011;1797;51.844;7.684;2023-04-24T00:16:42;0.40;;;0.30;;
3565;SDS011;1797;51.844;7.684;2023-04-24T00:19:08;0.40;;;0.30;;
3565;SDS011;1797;51.844;7.684;2023-04-24T00:21:34;1.00;;;0.60;;
3565;SDS011;1797;51.844;7.684;2023-04-24T00:24:00;0.40;;;0.30;;
3565;SDS011;1797;51.844;7.684;2023-04-24T00:26:25;0.40;;;0.30;;
3565;SDS011;1797;51.844;7.684;2023-04-24T00:28:51;0.40;;;0.30;;
3565;SDS011;1797;51.844;7.684;2023-04-24T00:31:16;0.40;;;0.40;;
3565;SDS011;1797;51.844;7.684;2023-04-24T00:33:42;0.40;;;0.40;;
3565;SDS011;1797;51.844;7.684;2023-04-24T00:36:07;0.40;;;0.30;;
3565;SDS011;1797;51.844;7.684;2023-04-24T00:38:33;0.40;;;0.30;;
3565;SDS011;1797;51.844;7.684;2023-04-24T00:40:59;2.50;;;0.60;;
3565;SDS011;1797;51.844;7.684;2023-04-24T00:43:24;0.40;;;0.30;;
3565;SDS011;1797;51.844;7.684;2023-04-24T00:45:50;0.40;;;0.30;;
3565;SDS011;1797;51.844;7.684;2023-04-24T00:48:16;0.50;;;0.40;;
3565;SDS011;1797;51.844;7.684;2023-04-24T00:50:41;0.40;;;0.35;;
3565;SDS011;1797;51.844;7.684;2023-04-24T00:53:07;1.20;;;0.60;;
3565;SDS011;1797;51.844;7.684;2023-04-24T00:55:33;0.40;;;0.30;;
3565;SDS011;1797;51.844;7.684;2023-04-24T00:57:58;0.40;;;0.40;;
3565;SDS011;1797;51.844;7.684;2023-04-24T01:00:24;0.40;;;0.40;;
3565;SDS011;1797;51.844;7.684;2023-04-24T01:02:50;0.40;;;0.30;;
3565;SDS011;1797;51.844;7.684;2023-04-24T01:05:17;0.40;;;0.30;;
3565;SDS011;1797;51.844;7.684;2023-04-24T01:07:44;0.40;;;0.30;;
3565;SDS011;1797;51.844;7.684;2023-04-24T01:10:13;0.80;;;0.60;;
3565;SDS011;1797;51.844;7.684;2023-04-24T01:12:39;0.40;;;0.30;;
3565;SDS011;1797;51.844;7.684;2023-04-24T01:15:05;0.40;;;0.30;;
3565;SDS011;1797;51.844;7.684;2023-04-24T01:17:32;0.60;;;0.50;;
3565;SDS011;1797;51.844;7.684;2023-04-24T01:19:58;0.40;;;0.30;;
3565;SDS011;1797;51.844;7.684;2023-04-24T01:22:25;0.40;;;0.30;;
3565;SDS011;1797;51.844;7.684;2023-04-24T01:24:51;0.60;;;0.60;;
3565;SDS011;1797;51.844;7.684;2023-04-24T01:27:17;1.00;;;0.50;;
3565;SDS011;1797;51.844;7.684;2023-04-24T01:29:42;0.40;;;0.38;;
3565;SDS011;1797;51.844;7.684;2023-04-24T01:32:08;0.40;;;0.30;;
3565;SDS011;1797;51.844;7.684;2023-04-24T01:34:34;0.40;;;0.30;;
3565;SDS011;1797;51.844;7.684;2023-04-24T01:37:00;0.40;;;0.30;;
3565;SDS011;1797;51.844;7.684;2023-04-24T01:39:26;0.50;;;0.50;;
3565;SDS011;1797;51.844;7.684;2023-04-24T01:41:53;0.50;;;0.50;;
3565;SDS011;1797;51.844;7.684;2023-04-24T01:44:19;1.10;;;0.30;;
3565;SDS011;1797;51.844;7.684;2023-04-24T01:46:45;0.40;;;0.30;;
3565;SDS011;1797;51.844;7.684;2023-04-24T01:49:11;0.40;;;0.40;;
3565;SDS011;1797;51.844;7.684;2023-04-24T01:51:37;0.40;;;0.30;;
3565;SDS011;1797;51.844;7.684;2023-04-24T01:54:02;0.40;;;0.30;;
3565;SDS011;1797;51.844;7.684;2023-04-24T01:56:28;0.80;;;0.40;;
3565;SDS011;1797;51.844;7.684;2023-04-24T01:58:55;1.00;;;0.50;;
3565;SDS011;1797;51.844;7.684;2023-04-24T02:01:23;0.40;;;0.40;;
3565;SDS011;1797;51.844;7.684;2023-04-24T02:03:49;1.10;;;1.00;;
3565;SDS011;1797;51.844;7.684;2023-04-24T02:06:15;0.40;;;0.40;;
3565;SDS011;1797;51.844;7.684;2023-04-24T02:08:41;0.40;;;0.30;;
3565;SDS011;1797;51.844;7.684;2023-04-24T02:11:08;0.40;;;0.30;;
3565;SDS011;1797;51.844;7.684;2023-04-24T02:13:34;0.40;;;0.40;;
3565;SDS011;1797;51.844;7.684;2023-04-24T02:16:00;0.50;;;0.50;;
3565;SDS011;1797;51.844;7.684;2023-04-24T02:18:25;0.60;;;0.60;;
3565;SDS011;1797;51.844;7.684;2023-04-24T02:20:51;0.43;;;0.33;;
3565;SDS011;1797;51.844;7.684;2023-04-24T02:23:17;0.70;;;0.60;;
3565;SDS011;1797;51.844;7.684;2023-04-24T02:25:42;0.70;;;0.70;;
3565;SDS011;1797;51.844;7.684;2023-04-24T02:28:08;0.40;;;0.40;;
3565;SDS011;1797;51.844;7.684;2023-04-24T02:30:33;0.40;;;0.40;;
3565;SDS011;1797;51.844;7.684;2023-04-24T02:32:59;0.80;;;0.70;;
3565;SDS011;1797;51.844;7.684;2023-04-24T02:35:25;0.60;;;0.60;;
3565;SDS011;1797;51.844;7.684;2023-04-24T02:37:50;0.60;;;0.40;;
3565;SDS011;1797;51.844;7.684;2023-04-24T02:40:16;0.40;;;0.30;;
3565;SDS011;1797;51.844;7.684;2023-04-24T02:42:41;1.10;;;1.07;;
3565;SDS011;1797;51.844;7.684;2023-04-24T02:45:07;0.50;;;0.50;;
3565;SDS011;1797;51.844;7.684;2023-04-24T02:47:33;0.40;;;0.30;;
3565;SDS011;1797;51.844;7.684;2023-04-24T02:49:58;1.53;;;0.37;;
3565;SDS011;1797;51.844;7.684;2023-04-24T02:52:24;0.43;;;0.43;;
3565;SDS011;1797;51.844;7.684;2023-04-24T02:54:50;0.50;;;0.50;;
3565;SDS011;1797;51.844;7.684;2023-04-24T02:57:15;1.00;;;0.80;;
3565;SDS011;1797;51.844;7.684;2023-04-24T02:59:41;5.60;;;0.90;;
3565;SDS011;1797;51.844;7.684;2023-04-24T03:02:06;0.70;;;0.70;;
3565;SDS011;1797;51.844;7.684;2023-04-24T03:04:32;0.52;;;0.52;;
3565;SDS011;1797;51.844;7.684;2023-04-24T03:06:57;4.00;;;1.20;;
3565;SDS011;1797;51.844;7.684;2023-04-24T03:09:23;2.15;;;1.88;;
3565;SDS011;1797;51.844;7.684;2023-04-24T03:11:50;1.30;;;1.00;;
3565;SDS011;1797;51.844;7.684;2023-04-24T03:14:15;3.90;;;0.80;;
3565;SDS011;1797;51.844;7.684;2023-04-24T03:16:41;0.53;;;0.53;;
3565;SDS011;1797;51.844;7.684;2023-04-24T03:19:07;0.90;;;0.90;;
3565;SDS011;1797;51.844;7.684;2023-04-24T03:21:33;1.00;;;0.90;;
3565;SDS011;1797;51.844;7.684;2023-04-24T03:24:00;1.20;;;1.10;;
3565;SDS011;1797;51.844;7.684;2023-04-24T03:26:27;0.80;;;0.80;;
3565;SDS011;1797;51.844;7.684;2023-04-24T03:28:52;0.70;;;0.70;;
3565;SDS011;1797;51.844;7.684;2023-04-24T03:31:18;2.70;;;1.20;;
3565;SDS011;1797;51.844;7.684;2023-04-24T03:33:46;1.00;;;0.90;;
3565;SDS011;1797;51.844;7.684;2023-04-24T03:36:11;0.60;;;0.60;;
3565;SDS011;1797;51.844;7.684;2023-04-24T03:38:37;0.55;;;0.55;;
3565;SDS011;1797;51.844;7.684;2023-04-24T03:41:02;0.40;;;0.30;;
3565;SDS011;1797;51.844;7.684;2023-04-24T03:43:28;2.22;;;0.63;;
3565;SDS011;1797;51.844;7.684;2023-04-24T03:45:53;2.10;;;0.50;;
3565;SDS011;1797;51.844;7.684;2023-04-24T03:48:19;1.00;;;1.00;;
3565;SDS011;1797;51.844;7.684;2023-04-24T03:50:45;1.20;;;1.10;;
3565;SDS011;1797;51.844;7.684;2023-04-24T03:53:10;0.90;;;0.80;;
3565;SDS011;1797;51.844;7.684;2023-04-24T03:55:36;1.40;;;1.30;;
3565;SDS011;1797;51.844;7.684;2023-04-24T03:58:01;4.90;;;1.10;;
3565;SDS011;1797;51.844;7.684;2023-04-24T04:00:27;1.50;;;1.30;;
3565;SDS011;1797;51.844;7.684;2023-04-24T04:02:52;2.80;;;0.80;;
3565;SDS011;1797;51.844;7.684;2023-04-24T04:05:18;0.50;;;0.50;;
3565;SDS011;1797;51.844;7.684;2023-04-24T04:07:44;1.20;;;1.10;;
3565;SDS011;1797;51.844;7.684;2023-04-24T04:10:09;2.00;;;1.50;;
3565;SDS011;1797;51.844;7.684;2023-04-24T04:12:35;2.57;;;2.37;;
3565;SDS011;1797;51.844;7.684;2023-04-24T04:15:00;1.50;;;0.60;;
3565;SDS011;1797;51.844;7.684;2023-04-24T04:17:26;1.20;;;1.10;;
3565;SDS011;1797;51.844;7.684;2023-04-24T04:19:52;2.40;;;1.00;;
3565;SDS011;1797;51.844;7.684;2023-04-24T04:22:17;0.98;;;0.80;;
3565;SDS011;1797;51.844;7.684;2023-04-24T04:24:43;1.30;;;1.20;;
3565;SDS011;1797;51.844;7.684;2023-04-24T04:27:09;1.23;;;1.23;;
3565;SDS011;1797;51.844;7.684;2023-04-24T04:29:35;2.30;;;1.30;;
3565;SDS011;1797;51.844;7.684;2023-04-24T04:32:01;1.23;;;1.13;;
3565;SDS011;1797;51.844;7.684;2023-04-24T04:34:27;0.82;;;0.70;;
3565;SDS011;1797;51.844;7.684;2023-04-24T04:36:53;1.40;;;1.40;;
3565;SDS011;1797;51.844;7.684;2023-04-24T04:39:19;4.00;;;1.47;;
3565;SDS011;1797;51.844;7.684;2023-04-24T04:41:45;4.10;;;2.93;;
3565;SDS011;1797;51.844;7.684;2023-04-24T04:44:14;2.13;;;1.92;;
3565;SDS011;1797;51.844;7.684;2023-04-24T04:46:40;3.72;;;1.40;;
3565;SDS011;1797;51.844;7.684;2023-04-24T04:49:06;1.10;;;1.00;;
3565;SDS011;1797;51.844;7.684;2023-04-24T04:51:33;0.80;;;0.52;;
3565;SDS011;1797;51.844;7.684;2023-04-24T04:53:59;2.75;;;1.50;;
3565;SDS011;1797;51.844;7.684;2023-04-24T04:56:25;2.55;;;2.05;;
3565;SDS011;1797;51.844;7.684;2023-04-24T04:58:51;3.20;;;2.42;;
3565;SDS011;1797;51.844;7.684;2023-04-24T05:01:16;2.40;;;2.20;;
3565;SDS011;1797;51.844;7.684;2023-04-24T05:03:42;2.10;;;1.83;;
3565;SDS011;1797;51.844;7.684;2023-04-24T05:06:07;2.20;;;1.00;;
3565;SDS011;1797;51.844;7.684;2023-04-24T05:08:33;3.60;;;2.00;;
3565;SDS011;1797;51.844;7.684;2023-04-24T05:10:59;2.10;;;1.23;;
3565;SDS011;1797;51.844;7.684;2023-04-24T05:13:25;2.70;;;2.50;;
3565;SDS011;1797;51.844;7.684;2023-04-24T05:15:50;2.05;;;1.80;;
3565;SDS011;1797;51.844;7.684;2023-04-24T05:18:16;1.70;;;1.60;;
3565;SDS011;1797;51.844;7.684;2023-04-24T05:20:42;2.40;;;1.10;;
3565;SDS011;1797;51.844;7.684;2023-04-24T05:23:08;1.80;;;1.30;;
3565;SDS011;1797;51.844;7.684;2023-04-24T05:25:34;1.20;;;1.10;;
3565;SDS011;1797;51.844;7.684;2023-04-24T05:28:01;3.25;;;1.23;;
3565;SDS011;1797;51.844;7.684;2023-04-24T05:30:27;2.72;;;1.58;;
3565;SDS011;1797;51.844;7.684;2023-04-24T05:32:53;1.67;;;1.20;;
3565;SDS011;1797;51.844;7.684;2023-04-24T05:35:18;7.80;;;1.57;;
3565;SDS011;1797;51.844;7.684;2023-04-24T05:37:44;3.10;;;1.20;;
3565;SDS011;1797;51.844;7.684;2023-04-24T05:40:10;1.80;;;1.30;;
3565;SDS011;1797;51.844;7.684;2023-04-24T05:42:36;2.70;;;1.90;;
3565;SDS011;1797;51.844;7.684;2023-04-24T05:45:02;2.30;;;2.10;;
3565;SDS011;1797;51.844;7.684;2023-04-24T05:47:28;1.80;;;1.40;;
3565;SDS011;1797;51.844;7.684;2023-04-24T05:49:54;6.07;;;2.08;;
3565;SDS011;1797;51.844;7.684;2023-04-24T05:52:19;3.70;;;2.10;;
3565;SDS011;1797;51.844;7.684;2023-04-24T05:54:45;5.30;;;2.00;;
3565;SDS011;1797;51.844;7.684;2023-04-24T05:57:10;4.10;;;1.87;;
3565;SDS011;1797;51.844;7.684;2023-04-24T05:59:37;4.80;;;1.40;;
3565;SDS011;1797;51.844;7.684;2023-04-24T06:02:06;0.98;;;0.98;;
3565;SDS011;1797;51.844;7.684;2023-04-24T06:04:32;2.42;;;1.77;;
3565;SDS011;1797;51.844;7.684;2023-04-24T06:06:58;3.90;;;1.30;;
3565;SDS011;1797;51.844;7.684;2023-04-24T06:09:24;5.80;;;1.70;;
3565;SDS011;1797;51.844;7.684;2023-04-24T06:11:50;7.72;;;3.10;;
3565;SDS011;1797;51.844;7.684;2023-04-24T06:14:18;1.30;;;1.20;;
3565;SDS011;1797;51.844;7.684;2023-04-24T06:16:44;1.13;;;0.93;;
3565;SDS011;1797;51.844;7.684;2023-04-24T06:19:09;4.53;;;1.73;;
3565;SDS011;1797;51.844;7.684;2023-04-24T06:21:35;2.50;;;1.23;;
3565;SDS011;1797;51.844;7.684;2023-04-24T06:24:01;1.15;;;0.50;;
3565;SDS011;1797;51.844;7.684;2023-04-24T06:26:27;1.80;;;1.50;;
3565;SDS011;1797;51.844;7.684;2023-04-24T06:28:53;0.80;;;0.80;;
3565;SDS011;1797;51.844;7.684;2023-04-24T06:31:21;1.88;;;1.20;;
3565;SDS011;1797;51.844;7.684;2023-04-24T06:33:48;3.13;;;1.80;;
3565;SDS011;1797;51.844;7.684;2023-04-24T06:36:14;1.05;;;1.00;;
3565;SDS011;1797;51.844;7.684;2023-04-24T06:38:40;0.75;;;0.75;;
3565;SDS011;1797;51.844;7.684;2023-04-24T06:41:06;0.77;;;0.75;;
3565;SDS011;1797;51.844;7.684;2023-04-24T06:43:32;3.40;;;1.30;;
3565;SDS011;1797;51.844;7.684;2023-04-24T06:45:58;1.80;;;1.00;;
3565;SDS011;1797;51.844;7.684;2023-04-24T06:48:25;1.00;;;0.68;;
3565;SDS011;1797;51.844;7.684;2023-04-24T06:50:51;0.95;;;0.82;;
3565;SDS011;1797;51.844;7.684;2023-04-24T06:53:17;1.50;;;0.98;;
3565;SDS011;1797;51.844;7.684;2023-04-24T06:55:43;0.70;;;0.70;;
3565;SDS011;1797;51.844;7.684;2023-04-24T06:58:11;0.80;;;0.80;;
3565;SDS011;1797;51.844;7.684;2023-04-24T07:00:36;1.27;;;0.57;;
3565;SDS011;1797;51.844;7.684;2023-04-24T07:03:02;1.10;;;0.93;;
3565;SDS011;1797;51.844;7.684;2023-04-24T07:05:30;1.65;;;1.17;;
3565;SDS011;1797;51.844;7.684;2023-04-24T07:07:56;0.68;;;0.68;;
3565;SDS011;1797;51.844;7.684;2023-04-24T07:10:23;1.50;;;1.40;;
3565;SDS011;1797;51.844;7.684;2023-04-24T07:12:49;1.55;;;1.40;;
3565;SDS011;1797;51.844;7.684;2023-04-24T07:15:15;0.50;;;0.50;;
3565;SDS011;1797;51.844;7.684;2023-04-24T07:17:41;0.40;;;0.30;;
3565;SDS011;1797;51.844;7.684;2023-04-24T07:20:09;2.72;;;1.15;;
3565;SDS011;1797;51.844;7.684;2023-04-24T07:22:35;1.50;;;1.10;;
3565;SDS011;1797;51.844;7.684;2023-04-24T07:25:02;1.67;;;1.25;;
3565;SDS011;1797;51.844;7.684;2023-04-24T07:27:28;2.03;;;1.23;;
3565;SDS011;1797;51.844;7.684;2023-04-24T07:29:54;1.40;;;1.30;;
3565;SDS011;1797;51.844;7.684;2023-04-24T07:32:19;1.25;;;1.15;;
3565;SDS011;1797;51.844;7.684;2023-04-24T07:34:45;1.08;;;1.08;;
3565;SDS011;1797;51.844;7.684;2023-04-24T07:37:11;1.40;;;1.30;;
3565;SDS011;1797;51.844;7.684;2023-04-24T07:39:36;0.85;;;0.75;;
3565;SDS011;1797;51.844;7.684;2023-04-24T07:42:02;2.20;;;1.00;;
3565;SDS011;1797;51.844;7.684;2023-04-24T07:44:28;3.50;;;1.55;;
3565;SDS011;1797;51.844;7.684;2023-04-24T07:46:54;3.30;;;1.60;;
3565;SDS011;1797;51.844;7.684;2023-04-24T07:49:20;1.50;;;1.40;;
3565;SDS011;1797;51.844;7.684;2023-04-24T07:51:46;0.40;;;0.40;;
3565;SDS011;1797;51.844;7.684;2023-04-24T07:54:11;1.80;;;0.70;;
3565;SDS011;1797;51.844;7.684;2023-04-24T07:56:37;1.90;;;1.20;;
3565;SDS011;1797;51.844;7.684;2023-04-24T07:59:04;0.90;;;0.90;;
3565;SDS011;1797;51.844;7.684;2023-04-24T08:01:30;0.70;;;0.60;;
3565;SDS011;1797;51.844;7.684;2023-04-24T08:03:55;4.10;;;1.60;;
3565;SDS011;1797;51.844;7.684;2023-04-24T08:06:21;1.20;;;0.70;;
3565;SDS011;1797;51.844;7.684;2023-04-24T08:08:47;3.60;;;1.00;;
3565;SDS011;1797;51.844;7.684;2023-04-24T08:11:12;0.70;;;0.70;;
3565;SDS011;1797;51.844;7.684;2023-04-24T08:13:38;0.97;;;0.97;;
3565;SDS011;1797;51.844;7.684;2023-04-24T08:16:04;0.50;;;0.50;;
3565;SDS011;1797;51.844;7.684;2023-04-24T08:18:29;1.00;;;0.90;;
3565;SDS011;1797;51.844;7.684;2023-04-24T08:20:55;0.68;;;0.65;;
3565;SDS011;1797;51.844;7.684;2023-04-24T08:23:26;0.52;;;0.52;;
3565;SDS011;1797;51.844;7.684;2023-04-24T08:25:51;0.93;;;0.93;;
3565;SDS011;1797;51.844;7.684;2023-04-24T08:28:17;0.90;;;0.60;;
3565;SDS011;1797;51.844;7.684;2023-04-24T08:30:45;1.50;;;0.63;;
3565;SDS011;1797;51.844;7.684;2023-04-24T08:33:19;1.70;;;0.90;;
3565;SDS011;1797;51.844;7.684;2023-04-24T08:35:45;0.40;;;0.30;;
3565;SDS011;1797;51.844;7.684;2023-04-24T08:38:11;4.30;;;0.77;;
3565;SDS011;1797;51.844;7.684;2023-04-24T08:40:36;0.50;;;0.50;;
3565;SDS011;1797;51.844;7.684;2023-04-24T08:43:03;0.40;;;0.30;;
3565;SDS011;1797;51.844;7.684;2023-04-24T08:45:28;0.40;;;0.30;;
3565;SDS011;1797;51.844;7.684;2023-04-24T08:47:54;0.50;;;0.50;;
3565;SDS011;1797;51.844;7.684;2023-04-24T08:50:21;0.80;;;0.60;;
3565;SDS011;1797;51.844;7.684;2023-04-24T08:52:49;0.60;;;0.50;;
3565;SDS011;1797;51.844;7.684;2023-04-24T08:55:16;0.40;;;0.40;;
3565;SDS011;1797;51.844;7.684;2023-04-24T08:57:44;0.80;;;0.80;;
3565;SDS011;1797;51.844;7.684;2023-04-24T09:00:11;0.50;;;0.40;;
3565;SDS011;1797;51.844;7.684;2023-04-24T09:02:39;0.40;;;0.30;;
3565;SDS011;1797;51.844;7.684;2023-04-24T09:05:07;0.40;;;0.33;;
3565;SDS011;1797;51.844;7.684;2023-04-24T09:07:35;0.63;;;0.63;;
3565;SDS011;1797;51.844;7.684;2023-04-24T09:10:03;0.50;;;0.50;;
3565;SDS011;1797;51.844;7.684;2023-04-24T09:12:30;0.40;;;0.40;;
3565;SDS011;1797;51.844;7.684;2023-04-24T09:14:56;0.90;;;0.40;;
3565;SDS011;1797;51.844;7.684;2023-04-24T09:17:22;0.80;;;0.80;;
3565;SDS011;1797;51.844;7.684;2023-04-24T09:19:48;1.20;;;1.10;;
3565;SDS011;1797;51.844;7.684;2023-04-24T09:22:13;0.80;;;0.60;;
3565;SDS011;1797;51.844;7.684;2023-04-24T09:24:40;1.40;;;0.80;;
3565;SDS011;1797;51.844;7.684;2023-04-24T09:27:06;1.30;;;1.10;;
3565;SDS011;1797;51.844;7.684;2023-04-24T09:29:32;0.70;;;0.70;;
3565;SDS011;1797;51.844;7.684;2023-04-24T09:31:58;0.40;;;0.40;;
3565;SDS011;1797;51.844;7.684;2023-04-24T09:34:24;0.40;;;0.30;;
3565;SDS011;1797;51.844;7.684;2023-04-24T09:36:52;0.93;;;0.85;;
3565;SDS011;1797;51.844;7.684;2023-04-24T09:39:18;1.00;;;0.50;;
3565;SDS011;1797;51.844;7.684;2023-04-24T09:41:48;0.90;;;0.60;;
3565;SDS011;1797;51.844;7.684;2023-04-24T09:44:19;0.50;;;0.50;;
3565;SDS011;1797;51.844;7.684;2023-04-24T09:46:49;2.30;;;1.13;;
3565;SDS011;1797;51.844;7.684;2023-04-24T09:49:21;0.40;;;0.40;;
3565;SDS011;1797;51.844;7.684;2023-04-24T09:51:48;0.70;;;0.30;;
3565;SDS011;1797;51.844;7.684;2023-04-24T09:54:15;0.50;;;0.50;;
3565;SDS011;1797;51.844;7.684;2023-04-24T09:56:43;0.60;;;0.40;;
3565;SDS011;1797;51.844;7.684;2023-04-24T09:59:10;0.60;;;0.60;;
3565;SDS011;1797;51.844;7.684;2023-04-24T10:01:36;0.60;;;0.60;;
3565;SDS011;1797;51.844;7.684;2023-04-24T10:04:03;0.50;;;0.40;;
3565;SDS011;1797;51.844;7.684;2023-04-24T10:06:35;0.80;;;0.80;;
3565;SDS011;1797;51.844;7.684;2023-04-24T10:09:01;0.70;;;0.70;;
3565;SDS011;1797;51.844;7.684;2023-04-24T10:11:28;0.60;;;0.60;;
3565;SDS011;1797;51.844;7.684;2023-04-24T10:13:55;0.77;;;0.63;;
3565;SDS011;1797;51.844;7.684;2023-04-24T10:16:22;2.00;;;1.17;;
3565;SDS011;1797;51.844;7.684;2023-04-24T10:18:48;0.90;;;0.50;;
3565;SDS011;1797;51.844;7.684;2023-04-24T10:21:14;0.60;;;0.60;;
3565;SDS011;1797;51.844;7.684;2023-04-24T10:23:42;2.35;;;1.33;;
3565;SDS011;1797;51.844;7.684;2023-04-24T10:26:17;0.43;;;0.32;;
3565;SDS011;1797;51.844;7.684;2023-04-24T10:28:47;1.00;;;0.70;;
3565;SDS011;1797;51.844;7.684;2023-04-24T10:31:13;0.57;;;0.52;;
3565;SDS011;1797;51.844;7.684;2023-04-24T10:33:40;0.75;;;0.75;;
3565;SDS011;1797;51.844;7.684;2023-04-24T10:36:07;0.60;;;0.60;;
3565;SDS011;1797;51.844;7.684;2023-04-24T10:38:35;0.88;;;0.60;;
3565;SDS011;1797;51.844;7.684;2023-04-24T10:41:09;0.55;;;0.40;;
3565;SDS011;1797;51.844;7.684;2023-04-24T10:43:41;0.52;;;0.52;;
3565;SDS011;1797;51.844;7.684;2023-04-24T10:46:08;0.40;;;0.30;;
3565;SDS011;1797;51.844;7.684;2023-04-24T10:48:35;0.40;;;0.30;;
3565;SDS011;1797;51.844;7.684;2023-04-24T10:51:10;0.40;;;0.30;;
3565;SDS011;1797;51.844;7.684;2023-04-24T10:53:37;0.50;;;0.50;;
3565;SDS011;1797;51.844;7.684;2023-04-24T10:56:03;0.60;;;0.40;;
3565;SDS011;1797;51.844;7.684;2023-04-24T10:58:43;0.60;;;0.60;;
3565;SDS011;1797;51.844;7.684;2023-04-24T11:01:32;0.60;;;0.60;;
3565;SDS011;1797;51.844;7.684;2023-04-24T11:03:58;0.40;;;0.30;;
3565;SDS011;1797;51.844;7.684;2023-04-24T11:08:59;0.40;;;0.40;;
3565;SDS011;1797;51.844;7.684;2023-04-24T11:11:38;0.52;;;0.52;;
3565;SDS011;1797;51.844;7.684;2023-04-24T11:14:09;0.40;;;0.40;;
3565;SDS011;1797;51.844;7.684;2023-04-24T11:16:38;0.40;;;0.30;;
3565;SDS011;1797;51.844;7.684;2023-04-24T11:21:48;1.60;;;1.00;;
3565;SDS011;1797;51.844;7.684;2023-04-24T11:27:19;0.50;;;0.50;;
3565;SDS011;1797;51.844;7.684;2023-04-24T11:34:59;1.00;;;0.40;;
3565;SDS011;1797;51.844;7.684;2023-04-24T11:37:26;1.10;;;1.10;;
3565;SDS011;1797;51.844;7.684;2023-04-24T11:39:55;0.60;;;0.60;;
3565;SDS011;1797;51.844;7.684;2023-04-24T11:42:22;2.67;;;0.90;;
3565;SDS011;1797;51.844;7.684;2023-04-24T11:44:49;0.40;;;0.30;;
3565;SDS011;1797;51.844;7.684;2023-04-24T11:47:16;0.50;;;0.50;;
3565;SDS011;1797;51.844;7.684;2023-04-24T11:49:42;0.40;;;0.40;;
3565;SDS011;1797;51.844;7.684;2023-04-24T11:52:08;0.40;;;0.30;;
3565;SDS011;1797;51.844;7.684;2023-04-24T11:54:34;0.40;;;0.30;;
3565;SDS011;1797;51.844;7.684;2023-04-24T11:56:59;1.90;;;0.95;;
3565;SDS011;1797;51.844;7.684;2023-04-24T11:59:29;0.50;;;0.50;;
3565;SDS011;1797;51.844;7.684;2023-04-24T12:01:59;0.80;;;0.80;;
3565;SDS011;1797;51.844;7.684;2023-04-24T12:04:25;0.40;;;0.30;;
3565;SDS011;1797;51.844;7.684;2023-04-24T12:07:03;1.35;;;0.73;;
3565;SDS011;1797;51.844;7.684;2023-04-24T12:12:23;0.70;;;0.40;;
3565;SDS011;1797;51.844;7.684;2023-04-24T12:14:55;0.40;;;0.30;;
3565;SDS011;1797;51.844;7.684;2023-04-24T12:17:31;1.80;;;0.87;;
3565;SDS011;1797;51.844;7.684;2023-04-24T12:19:58;1.10;;;0.73;;
3565;SDS011;1797;51.844;7.684;2023-04-24T12:22:25;3.70;;;0.80;;
3565;SDS011;1797;51.844;7.684;2023-04-24T12:25:03;0.40;;;0.40;;
3565;SDS011;1797;51.844;7.684;2023-04-24T12:27:31;0.40;;;0.30;;
3565;SDS011;1797;51.844;7.684;2023-04-24T12:29:58;0.40;;;0.30;;
3565;SDS011;1797;51.844;7.684;2023-04-24T12:32:24;2.40;;;2.20;;
3565;SDS011;1797;51.844;7.684;2023-04-24T12:34:50;0.50;;;0.50;;
3565;SDS011;1797;51.844;7.684;2023-04-24T12:37:17;0.40;;;0.40;;
3565;SDS011;1797;51.844;7.684;2023-04-24T12:42:34;1.30;;;0.70;;
3565;SDS011;1797;51.844;7.684;2023-04-24T12:45:02;0.60;;;0.60;;
3565;SDS011;1797;51.844;7.684;2023-04-24T12:47:29;0.60;;;0.60;;
3565;SDS011;1797;51.844;7.684;2023-04-24T12:49:55;0.52;;;0.52;;
3565;SDS011;1797;51.844;7.684;2023-04-24T12:52:25;1.60;;;1.20;;
3565;SDS011;1797;51.844;7.684;2023-04-24T12:54:55;0.60;;;0.60;;
3565;SDS011;1797;51.844;7.684;2023-04-24T12:57:22;0.40;;;0.30;;
3565;SDS011;1797;51.844;7.684;2023-04-24T12:59:48;0.40;;;0.30;;
3565;SDS011;1797;51.844;7.684;2023-04-24T13:02:14;2.70;;;1.90;;
3565;SDS011;1797;51.844;7.684;2023-04-24T13:04:46;0.60;;;0.60;;
3565;SDS011;1797;51.844;7.684;2023-04-24T13:07:12;0.40;;;0.40;;
3565;SDS011;1797;51.844;7.684;2023-04-24T13:09:38;2.70;;;1.50;;
3565;SDS011;1797;51.844;7.684;2023-04-24T13:12:04;1.25;;;1.23;;
3565;SDS011;1797;51.844;7.684;2023-04-24T13:14:30;0.90;;;0.80;;
3565;SDS011;1797;51.844;7.684;2023-04-24T13:16:56;0.80;;;0.70;;
3565;SDS011;1797;51.844;7.684;2023-04-24T13:19:24;0.50;;;0.50;;
3565;SDS011;1797;51.844;7.684;2023-04-24T13:21:51;0.60;;;0.60;;
3565;SDS011;1797;51.844;7.684;2023-04-24T13:24:17;0.90;;;0.90;;
3565;SDS011;1797;51.844;7.684;2023-04-24T13:26:42;0.50;;;0.40;;
3565;SDS011;1797;51.844;7.684;2023-04-24T13:29:08;0.40;;;0.30;;
3565;SDS011;1797;51.844;7.684;2023-04-24T13:31:34;1.20;;;0.90;;
3565;SDS011;1797;51.844;7.684;2023-04-24T13:34:00;0.80;;;0.80;;
3565;SDS011;1797;51.844;7.684;2023-04-24T13:36:26;1.40;;;0.60;;
3565;SDS011;1797;51.844;7.684;2023-04-24T13:38:51;1.00;;;0.80;;
3565;SDS011;1797;51.844;7.684;2023-04-24T13:41:17;0.70;;;0.60;;
3565;SDS011;1797;51.844;7.684;2023-04-24T13:43:42;0.40;;;0.30;;
3565;SDS011;1797;51.844;7.684;2023-04-24T13:46:08;0.40;;;0.40;;
3565;SDS011;1797;51.844;7.684;2023-04-24T13:48:34;0.40;;;0.30;;
3565;SDS011;1797;51.844;7.684;2023-04-24T13:50:59;0.70;;;0.70;;
3565;SDS011;1797;51.844;7.684;2023-04-24T13:53:25;0.40;;;0.40;;
3565;SDS011;1797;51.844;7.684;2023-04-24T13:55:51;0.70;;;0.40;;
3565;SDS011;1797;51.844;7.684;2023-04-24T13:58:16;0.40;;;0.30;;
3565;SDS011;1797;51.844;7.684;2023-04-24T14:00:42;0.40;;;0.30;;
3565;SDS011;1797;51.844;7.684;2023-04-24T14:03:08;0.50;;;0.50;;
3565;SDS011;1797;51.844;7.684;2023-04-24T14:05:33;0.40;;;0.30;;
3565;SDS011;1797;51.844;7.684;2023-04-24T14:07:59;0.40;;;0.30;;
3565;SDS011;1797;51.844;7.684;2023-04-24T14:10:25;0.40;;;0.40;;
3565;SDS011;1797;51.844;7.684;2023-04-24T14:12:52;0.50;;;0.43;;
3565;SDS011;1797;51.844;7.684;2023-04-24T14:15:18;0.90;;;0.50;;
3565;SDS011;1797;51.844;7.684;2023-04-24T14:17:43;0.40;;;0.40;;
3565;SDS011;1797;51.844;7.684;2023-04-24T14:20:09;0.40;;;0.30;;
3565;SDS011;1797;51.844;7.684;2023-04-24T14:22:35;1.30;;;0.90;;
3565;SDS011;1797;51.844;7.684;2023-04-24T14:25:01;0.40;;;0.40;;
3565;SDS011;1797;51.844;7.684;2023-04-24T14:27:26;4.10;;;0.90;;
3565;SDS011;1797;51.844;7.684;2023-04-24T14:29:52;0.50;;;0.40;;
3565;SDS011;1797;51.844;7.684;2023-04-24T14:32:17;1.00;;;0.90;;
3565;SDS011;1797;51.844;7.684;2023-04-24T14:34:43;0.40;;;0.40;;
3565;SDS011;1797;51.844;7.684;2023-04-24T14:37:09;0.40;;;0.30;;
3565;SDS011;1797;51.844;7.684;2023-04-24T14:39:34;0.40;;;0.30;;
3565;SDS011;1797;51.844;7.684;2023-04-24T14:42:00;0.60;;;0.60;;
3565;SDS011;1797;51.844;7.684;2023-04-24T14:44:26;0.60;;;0.50;;
3565;SDS011;1797;51.844;7.684;2023-04-24T14:46:52;0.40;;;0.30;;
3565;SDS011;1797;51.844;7.684;2023-04-24T14:49:18;0.40;;;0.30;;
3565;SDS011;1797;51.844;7.684;2023-04-24T14:51:43;0.40;;;0.30;;
3565;SDS011;1797;51.844;7.684;2023-04-24T14:54:09;0.70;;;0.70;;
3565;SDS011;1797;51.844;7.684;2023-04-24T14:56:35;0.40;;;0.30;;
3565;SDS011;1797;51.844;7.684;2023-04-24T14:59:00;0.40;;;0.30;;
3565;SDS011;1797;51.844;7.684;2023-04-24T15:01:27;0.40;;;0.30;;
3565;SDS011;1797;51.844;7.684;2023-04-24T15:03:52;0.50;;;0.50;;
3565;SDS011;1797;51.844;7.684;2023-04-24T15:06:18;0.40;;;0.30;;
3565;SDS011;1797;51.844;7.684;2023-04-24T15:08:45;0.80;;;0.80;;
3565;SDS011;1797;51.844;7.684;2023-04-24T15:11:10;0.40;;;0.30;;
3565;SDS011;1797;51.844;7.684;2023-04-24T15:13:36;0.50;;;0.40;;
3565;SDS011;1797;51.844;7.684;2023-04-24T15:16:02;0.40;;;0.40;;
3565;SDS011;1797;51.844;7.684;2023-04-24T15:18:28;0.40;;;0.40;;
3565;SDS011;1797;51.844;7.684;2023-04-24T15:20:54;0.40;;;0.30;;
3565;SDS011;1797;51.844;7.684;2023-04-24T15:23:20;0.40;;;0.40;;
3565;SDS011;1797;51.844;7.684;2023-04-24T15:25:45;0.40;;;0.30;;
3565;SDS011;1797;51.844;7.684;2023-04-24T15:28:11;0.40;;;0.30;;
3565;SDS011;1797;51.844;7.684;2023-04-24T15:30:37;0.50;;;0.40;;